This is the latest recevied weather packets stored in our database for station/object E24CR-1. If no packets are shown the sender has not sent any weather packets the latest 10 day(s).
| Time | Temp. | Humidity | Pressure | Rain* | Wind** | Luminosity | Snow |
|---|---|---|---|---|---|---|---|
| 1778005112 | 23.89° C | 85% | 952 hPa | - | - | 0 W/m² | - |
| 1778004487 | 23.89° C | 85% | 952 hPa | - | - | 0 W/m² | - |
| 1778003863 | 23.89° C | 85% | 952 hPa | - | - | 0 W/m² | - |
| 1778003239 | 23.89° C | 93% | 952 hPa | - | - | 0 W/m² | - |
| 1778002615 | 23.89° C | 92% | 952 hPa | - | - | 0 W/m² | - |
| 1778001990 | 24.44° C | 95% | 952 hPa | - | - | 0 W/m² | - |
| 1778001367 | 24.44° C | 99% | 953 hPa | - | - | 0 W/m² | - |
| 1778000742 | 25° C | 95% | 953 hPa | - | - | 0 W/m² | - |
| 1778000118 | 25° C | 95% | 953 hPa | - | - | 0 W/m² | - |
| 1777999494 | 26.67° C | 79% | 953 hPa | - | - | 0 W/m² | - |
| 1777998870 | 28.89° C | 64% | 953 hPa | - | - | 0 W/m² | - |
| 1777998246 | 28.33° C | 64% | 953 hPa | - | - | 0 W/m² | - |
| 1777997622 | 27.78° C | 66% | 953 hPa | - | - | 0 W/m² | - |
| 1777996997 | 27.78° C | 67% | 953 hPa | - | - | 0 W/m² | - |
| 1777996373 | 28.33° C | 66% | 953 hPa | - | - | 0 W/m² | - |
| 1777995748 | 28.89° C | 64% | 953 hPa | - | - | 0 W/m² | - |
| 1777995124 | 28.89° C | 64% | 953 hPa | - | - | 0 W/m² | - |
| 1777994500 | 28.89° C | 63% | 953 hPa | - | - | 0 W/m² | - |
| 1777993876 | 28.89° C | 64% | 952 hPa | - | - | 0 W/m² | - |
| 1777993252 | 28.89° C | 63% | 952 hPa | - | - | 0 W/m² | - |
| 1777992628 | 28.33° C | 65% | 952 hPa | - | - | 0 W/m² | - |
| 1777992004 | 28.33° C | 64% | 952 hPa | - | - | 0 W/m² | - |
| 1777991379 | 28.33° C | 62% | 952 hPa | - | - | 0 W/m² | - |
| 1777990755 | 28.33° C | 62% | 952 hPa | - | - | 0 W/m² | - |
| 1777989496 | 28.33° C | 62% | 951 hPa | - | - | 0 W/m² | - |
* Rain since midnight (hover to see other rain measurements)
** Current wind speed in m/s (hover to see current wind gust speed)